createdAt,value
2022-09-13T00:04:28.228Z,9.05
2022-09-13T00:10:37.704Z,9.00
2022-09-13T00:15:51.836Z,8.94
2022-09-13T00:22:06.469Z,8.92
2022-09-13T00:27:35.603Z,8.93
2022-09-13T00:33:07.997Z,8.92
2022-09-13T00:39:00.577Z,8.87
2022-09-13T00:45:10.774Z,8.83
2022-09-13T00:51:22.211Z,8.81
2022-09-13T00:57:54.023Z,8.85
2022-09-13T01:03:17.903Z,8.86
2022-09-13T01:09:32.729Z,8.84
2022-09-13T01:14:48.409Z,8.84
2022-09-13T01:20:16.035Z,8.82
2022-09-13T01:26:08.988Z,8.76
2022-09-13T01:32:43.450Z,8.68
2022-09-13T01:38:49.607Z,8.62
2022-09-13T01:45:29.711Z,8.60
2022-09-13T01:51:52.650Z,8.58
2022-09-13T01:57:47.064Z,8.55
2022-09-13T02:03:51.084Z,8.52
2022-09-13T02:09:01.834Z,8.46
2022-09-13T02:14:55.743Z,8.42
2022-09-13T02:20:30.257Z,8.44
2022-09-13T02:26:34.909Z,8.45
2022-09-13T02:33:29.959Z,8.40
2022-09-13T02:39:28.144Z,8.34
2022-09-13T02:44:56.006Z,8.31
2022-09-13T02:51:40.340Z,8.30
2022-09-13T02:57:55.812Z,8.28
2022-09-13T03:04:04.845Z,8.30
2022-09-13T03:09:13.391Z,8.33
2022-09-13T03:16:08.315Z,8.31
2022-09-13T03:23:13.884Z,8.29
2022-09-13T03:29:51.618Z,8.27
2022-09-13T03:36:01.989Z,8.22
2022-09-13T03:41:51.707Z,8.19
2022-09-13T03:47:04.296Z,8.15
2022-09-13T03:52:30.193Z,8.11
2022-09-13T03:58:53.262Z,8.08
2022-09-13T04:05:23.931Z,8.07
2022-09-13T04:10:38.988Z,8.03
2022-09-13T04:16:07.557Z,8.00
2022-09-13T04:22:41.587Z,7.99
2022-09-13T04:28:07.120Z,7.99
2022-09-13T04:33:38.847Z,8.01
2022-09-13T04:39:23.937Z,8.04
2022-09-13T04:45:12.027Z,8.08
2022-09-13T04:50:17.002Z,8.14
2022-09-13T04:56:24.268Z,8.22
2022-09-13T05:03:00.614Z,8.36
2022-09-13T05:09:03.280Z,8.51
2022-09-13T05:14:37.718Z,8.65
2022-09-13T05:20:26.429Z,8.81
2022-09-13T05:26:55.833Z,8.98
2022-09-13T05:33:23.249Z,9.16
2022-09-13T05:40:10.286Z,9.36
2022-09-13T05:46:23.776Z,9.57
2022-09-13T05:52:36.273Z,9.75
2022-09-13T05:58:41.243Z,9.98
2022-09-13T06:03:57.915Z,10.16
2022-09-13T06:09:20.158Z,10.30
2022-09-13T06:14:32.151Z,10.48
2022-09-13T06:19:44.682Z,10.65
2022-09-13T06:25:13.082Z,10.85
2022-09-13T06:30:19.879Z,11.06
2022-09-13T06:35:22.091Z,11.30
2022-09-13T06:40:27.318Z,11.54
2022-09-13T06:46:35.525Z,11.79
2022-09-13T06:52:16.068Z,12.03
2022-09-13T06:58:16.247Z,12.33
2022-09-13T07:03:37.472Z,12.65
2022-09-13T07:09:32.284Z,12.92
2022-09-13T07:14:57.466Z,13.21
2022-09-13T07:21:01.757Z,13.46
2022-09-13T07:26:45.073Z,13.67
2022-09-13T07:32:34.961Z,13.78
2022-09-13T07:38:30.354Z,13.94
2022-09-13T07:44:17.840Z,14.22
2022-09-13T07:50:03.452Z,14.55
2022-09-13T07:55:25.023Z,14.83
2022-09-13T08:00:29.978Z,15.12
2022-09-13T08:05:32.736Z,15.45
2022-09-13T08:10:38.140Z,15.77
2022-09-13T08:15:43.009Z,16.04
2022-09-13T08:21:01.358Z,16.22
2022-09-13T08:26:25.390Z,16.37
2022-09-13T08:31:41.455Z,16.53
2022-09-13T08:36:52.299Z,16.62
2022-09-13T08:43:17.568Z,16.73
2022-09-13T08:48:58.093Z,16.90
2022-09-13T08:54:11.948Z,17.08
2022-09-13T08:59:41.020Z,17.28
2022-09-13T09:05:13.002Z,17.39
2022-09-13T09:10:33.723Z,17.39
2022-09-13T09:16:07.451Z,17.57
2022-09-13T09:21:28.680Z,17.77
2022-09-13T09:26:54.233Z,17.91
2022-09-13T09:32:48.559Z,18.08
2022-09-13T09:38:46.920Z,18.20
2022-09-13T09:44:21.343Z,18.30
2022-09-13T09:50:14.469Z,18.49
2022-09-13T09:56:15.347Z,18.69
2022-09-13T10:02:02.029Z,18.92
2022-09-13T10:08:25.320Z,19.05
2022-09-13T10:15:00.200Z,19.27
2022-09-13T10:20:17.653Z,19.40
2022-09-13T10:25:50.830Z,19.57
2022-09-13T10:31:17.519Z,19.68
2022-09-13T10:37:26.281Z,19.83
2022-09-13T10:43:07.102Z,20.01
2022-09-13T10:49:09.374Z,20.15
2022-09-13T10:54:59.381Z,20.24
2022-09-13T11:00:17.595Z,20.33
2022-09-13T11:06:24.549Z,20.39
2022-09-13T11:11:45.765Z,20.55
2022-09-13T11:17:37.741Z,20.75
2022-09-13T11:23:20.183Z,20.92
2022-09-13T11:29:13.609Z,21.18
2022-09-13T11:35:15.144Z,21.42
2022-09-13T11:40:54.379Z,21.55
2022-09-13T11:46:18.331Z,21.67
2022-09-13T11:51:43.816Z,21.72
2022-09-13T11:57:04.555Z,21.84
2022-09-13T12:02:47.074Z,21.75
2022-09-13T12:08:43.441Z,21.56
2022-09-13T12:14:13.183Z,21.19
2022-09-13T12:19:25.963Z,20.81
2022-09-13T12:24:56.544Z,20.68
2022-09-13T12:30:07.497Z,20.64
2022-09-13T12:36:21.420Z,20.62
2022-09-13T12:42:36.012Z,20.60
2022-09-13T12:47:53.958Z,20.57
2022-09-13T12:53:39.612Z,20.55
2022-09-13T12:59:15.894Z,20.54
2022-09-13T13:04:53.185Z,20.57
2022-09-13T13:09:58.579Z,20.65
2022-09-13T13:15:49.266Z,20.84
2022-09-13T13:21:27.660Z,20.96
2022-09-13T13:27:21.497Z,20.98
2022-09-13T13:32:31.447Z,21.01
2022-09-13T13:38:54.519Z,21.04
2022-09-13T13:44:36.775Z,20.91
2022-09-13T13:49:43.773Z,20.86
2022-09-13T13:55:41.411Z,20.85
2022-09-13T14:01:02.532Z,20.89
2022-09-13T14:06:32.927Z,21.03
2022-09-13T14:12:07.881Z,21.14
2022-09-13T14:18:07.269Z,21.22
2022-09-13T14:23:57.303Z,21.33
2022-09-13T14:29:20.173Z,21.33
2022-09-13T14:34:56.084Z,21.26
2022-09-13T14:40:17.678Z,21.05
2022-09-13T14:45:44.569Z,20.86
2022-09-13T14:51:04.490Z,20.63
2022-09-13T14:57:03.685Z,20.52
2022-09-13T15:02:31.222Z,20.46
2022-09-13T15:08:42.640Z,20.43
2022-09-13T15:14:50.676Z,20.42
2022-09-13T15:20:24.759Z,20.37
2022-09-13T15:26:01.036Z,20.29
2022-09-13T15:31:46.460Z,20.22
2022-09-13T15:37:13.702Z,20.10
2022-09-13T15:42:18.797Z,20.06
2022-09-13T15:47:20.768Z,19.96
2022-09-13T15:52:29.051Z,19.88
2022-09-13T15:58:01.463Z,19.80
2022-09-13T16:03:14.712Z,19.70
2022-09-13T16:08:16.548Z,19.61
2022-09-13T16:13:24.703Z,19.51
2022-09-13T16:18:35.535Z,19.41
2022-09-13T16:23:43.242Z,19.30
2022-09-13T16:28:48.498Z,19.21
2022-09-13T16:33:54.955Z,19.10
2022-09-13T16:38:57.574Z,18.97
2022-09-13T16:44:05.159Z,18.81
2022-09-13T16:49:37.266Z,18.64
2022-09-13T16:55:18.224Z,18.46
2022-09-13T17:00:43.470Z,18.31
2022-09-13T17:06:13.183Z,18.16
2022-09-13T17:11:21.622Z,18.03
2022-09-13T17:16:29.007Z,17.89
2022-09-13T17:21:52.640Z,17.73
2022-09-13T17:27:01.644Z,17.57
2022-09-13T17:32:32.763Z,17.43
2022-09-13T17:38:03.602Z,17.33
2022-09-13T17:43:14.224Z,17.28
2022-09-13T17:48:21.764Z,17.26
2022-09-13T17:54:00.886Z,17.25
2022-09-13T17:59:16.506Z,17.25
2022-09-13T18:04:22.014Z,17.19
2022-09-13T18:09:24.830Z,17.14
2022-09-13T18:14:29.252Z,17.09
2022-09-13T18:19:45.911Z,17.05
2022-09-13T18:24:52.373Z,17.01
2022-09-13T18:29:54.440Z,16.98
2022-09-13T18:35:22.699Z,16.97
2022-09-13T18:40:41.913Z,16.97
2022-09-13T18:45:44.129Z,16.97
2022-09-13T18:50:50.122Z,16.97
2022-09-13T18:55:56.192Z,16.97
2022-09-13T19:01:06.136Z,16.98
2022-09-13T19:06:16.861Z,17.01
2022-09-13T19:11:45.200Z,17.02
2022-09-13T19:16:49.027Z,16.99
2022-09-13T19:21:51.625Z,16.94
2022-09-13T19:26:54.963Z,16.88
2022-09-13T19:32:03.859Z,16.82
2022-09-13T19:37:06.163Z,16.77
2022-09-13T19:42:29.145Z,16.72
2022-09-13T19:52:58.513Z,16.59
2022-09-13T19:58:13.199Z,16.52
2022-09-13T20:03:26.138Z,16.47
2022-09-13T20:08:28.668Z,16.44
2022-09-13T20:13:31.069Z,16.44
2022-09-13T20:18:36.009Z,16.45
2022-09-13T20:23:47.238Z,16.44
2022-09-13T20:29:14.544Z,16.40
2022-09-13T20:34:37.783Z,16.35
2022-09-13T20:39:49.003Z,16.31
2022-09-13T20:45:01.412Z,16.26
2022-09-13T20:50:15.441Z,16.23
2022-09-13T20:55:48.563Z,16.22
2022-09-13T21:01:48.934Z,16.23
2022-09-13T21:07:32.256Z,16.24
2022-09-13T21:13:26.921Z,16.27
2022-09-13T21:18:49.459Z,16.28
2022-09-13T21:24:32.320Z,16.28
2022-09-13T21:30:04.943Z,16.26
2022-09-13T21:35:22.859Z,16.21
2022-09-13T21:40:37.044Z,16.16
2022-09-13T21:46:38.362Z,16.12
2022-09-13T21:52:01.377Z,16.08
2022-09-13T21:58:12.710Z,16.06
2022-09-13T22:03:40.037Z,16.09
2022-09-13T22:10:08.152Z,16.14
2022-09-13T22:15:44.651Z,16.19
2022-09-13T22:21:27.793Z,16.25
2022-09-13T22:27:28.559Z,16.30
2022-09-13T22:32:45.174Z,16.32
2022-09-13T22:39:01.739Z,16.32
2022-09-13T22:44:10.087Z,16.29
2022-09-13T22:50:14.609Z,16.24
2022-09-13T22:56:50.422Z,16.23
2022-09-13T23:02:42.035Z,16.22
2022-09-13T23:08:47.638Z,16.23
2022-09-13T23:14:41.825Z,16.24
2022-09-13T23:20:58.587Z,16.24
2022-09-13T23:27:27.476Z,16.20
2022-09-13T23:34:00.300Z,16.18
2022-09-13T23:39:52.945Z,16.22
2022-09-13T23:46:33.320Z,16.28
2022-09-13T23:52:43.577Z,16.31
2022-09-13T23:57:57.100Z,16.32
